Terminal Aerodrome Forecast
Issued by NWS

Home | Current Version | Previous Version | Text Only | Print | Product List | Glossary On
Versions: 1 2 3 4 5 6 7 8 9 10 11 12 13 14 15 16 17 18
000
FTUS46 KLOX 261127
TAFBUR
TAF
KBUR 261127Z 2612/2712 VRB03KT P6SM BKN200 WS010/02030KT
     FM261600 04008KT P6SM SCT200
     FM262000 18012KT P6SM SCT200
     FM270400 01006KT P6SM SCT200=

USA.gov is the U.S. government's official web portal to all federal, state and local government web resources and services.